< < Back
Terminal Aerodrome Forecast


Current Version              Previous Versions:   1  2  3  4  5  6  7  8  9  

Terminal Aerodrome Forecast

159
FTUS42 KILM 292335
TAFFLO
TAF
KFLO 292335Z 3000/3024 19008KT P6SM SCT040 BKN100
      TEMPO 3009/3011 4SM BR BKN004
     FM301300 14007KT P6SM SCT040 BKN100 PROB30 3018/3024 3SM -TSRA
      BKN025CB=

Latest METAR

346
SAUS70 KWBC 300456
MTRFLO
METAR KFLO 300453Z AUTO 00000KT 10SM CLR 23/21 A3001 RMK AO2 SLP157
T02330211 403220228


USA.gov is the U.S. government's official web portal to all federal, state and local government web resources and services.